Seiwamaru — JL6203 — position and weather

sailwx.info

Track history (hours):
 
Tides and Currents Weather Stations Pressure Air Temp Water Temp Dewpoint Dewpoint Depression Visibility Wind Speed Wind Dir Waves Ship Positions

Seiwamaru

Last reported at 2018-Jun-12 10:51 UTC. Time now 2018-Jun-19 21:27 UTC.
Position N 35°07' E 139°45'.

Length 71 m; draft 4.6 m.

Type: Ship (hazmat cat B). MMSI: 431500282.

Date/timePositionNaut miles runAvg speedWind from/ knotsBaromVisibWave heightAir tempDewpointWater temp
2018-Jun-12 10:51N 35°07' E 139°45'412.2
2018-Jun-12 10:30N 35°11' E 139°46'612.0
2018-Jun-12 10:00N 35°17' E 139°45'612.3
2018-Jun-12 09:30N 35°23' E 139°42'612.5
2018-Jun-12 09:00N 35°28' E 139°48'612.0
2018-Jun-12 08:30N 35°32' E 139°53'3 0.2
2018-Jun-11 18:52N 35°34' E 139°55'5 0.3
2018-Jun-11 03:45N 35°31' E 139°51'311.2
2018-Jun-11 03:30N 35°29' E 139°49'611.1
2018-Jun-11 03:00N 35°26' E 139°43'3 5.6
2018-Jun-11 02:30N 35°28' E 139°40'0 0.0
2018-Jun-11 02:00N 35°28' E 139°40'0 0.0
2018-Jun-11 01:30N 35°28' E 139°40'0 0.0
2018-Jun-11 01:00N 35°28' E 139°40'0 0.0
2018-Jun-11 00:29N 35°28' E 139°40'0 0.0
2018-Jun-11 00:00N 35°28' E 139°40'0 0.0
2018-Jun-10 23:30N 35°28' E 139°40'0 0.3
2018-Jun-10 23:00N 35°28' E 139°40'2 4.4
2018-Jun-10 22:30N 35°26' E 139°42'2 3.7
2018-Jun-10 22:00N 35°28' E 139°44'0 0.1
2018-Jun-10 21:30N 35°28' E 139°44'0 0.0
2018-Jun-10 21:00N 35°28' E 139°44'0 0.0
2018-Jun-10 20:30N 35°28' E 139°44'0 0.0
2018-Jun-10 20:00N 35°28' E 139°44'0 0.0
2018-Jun-10 19:30N 35°28' E 139°44'0 0.0
2018-Jun-10 19:00N 35°28' E 139°44'0 0.0
2018-Jun-10 18:30N 35°28' E 139°44'0 0.0
2018-Jun-10 18:00N 35°28' E 139°44'0 0.0
2018-Jun-10 17:30N 35°28' E 139°44'0 0.0
2018-Jun-10 16:58N 35°28' E 139°44'0 0.0
2018-Jun-10 16:30N 35°28' E 139°44'0 0.0
2018-Jun-10 16:00N 35°28' E 139°44'0 0.0
2018-Jun-10 15:30N 35°28' E 139°44'0 0.0
2018-Jun-10 15:00N 35°28' E 139°44'0 0.0
2018-Jun-10 14:30N 35°28' E 139°44'4 4.2
2018-Jun-10 13:30N 35°28' E 139°49'6 1.0
2018-Jun-10 06:58N 35°32' E 139°55'511.4
2018-Jun-10 06:30N 35°30' E 139°49'3 6.7
2018-Jun-10 06:00N 35°30' E 139°45'0 0.0
2018-Jun-10 05:30N 35°30' E 139°45'0 0.0
2018-Jun-10 05:00N 35°30' E 139°45'0 0.0
2018-Jun-10 04:30N 35°30' E 139°45'0 0.0
2018-Jun-10 03:59N 35°30' E 139°45'0 0.0
2018-Jun-10 03:30N 35°30' E 139°45'0 0.0
2018-Jun-10 03:00N 35°30' E 139°45'0 0.0
2018-Jun-10 02:30N 35°30' E 139°45'0 0.0
2018-Jun-10 02:00N 35°30' E 139°45'0 0.0
2018-Jun-10 01:30N 35°30' E 139°45'0 0.0
2018-Jun-10 01:00N 35°30' E 139°45'0 0.0
2018-Jun-10 00:30N 35°30' E 139°45'1 2.4
2018-Jun-10 00:00N 35°30' E 139°43'2 4.8
2018-Jun-09 23:30N 35°27' E 139°43'5 9.3
2018-Jun-09 22:58N 35°29' E 139°49'0 0.1
2018-Jun-09 22:30N 35°29' E 139°49'0 0.1
2018-Jun-09 22:00N 35°29' E 139°49'0 0.1
2018-Jun-09 21:30N 35°29' E 139°49'0 0.0
2018-Jun-09 21:00N 35°29' E 139°49'0 0.0
2018-Jun-09 20:25N 35°29' E 139°49'0 0.0
2018-Jun-09 20:00N 35°29' E 139°49'0 0.0
2018-Jun-09 19:30N 35°29' E 139°49'0 0.0
2018-Jun-09 19:00N 35°29' E 139°49'0 0.0
2018-Jun-09 18:30N 35°29' E 139°49'0 0.4
2018-Jun-09 18:00N 35°29' E 139°49'5 9.1
2018-Jun-09 17:30N 35°25' E 139°46'611.2
2018-Jun-09 17:00N 35°19' E 139°44'611.7
2018-Jun-09 16:29N 35°14' E 139°47'  
2018-Jun-04 07:19N 35°08' E 139°42'412.1
2018-Jun-04 06:57N 35°11' E 139°46'511.1
2018-Jun-04 06:28N 35°17' E 139°45'511.5
2018-Jun-04 06:00N 35°21' E 139°42'611.0
2018-Jun-04 05:30N 35°26' E 139°46'612.3
2018-Jun-04 05:00N 35°30' E 139°52'9 1.4
2018-Jun-03 22:49N 35°35' E 140°00'310.1
2018-Jun-03 22:30N 35°35' E 139°56'1 0.2
2018-Jun-03 16:31N 35°35' E 139°55'0 0.0
2018-Jun-03 16:30N 35°35' E 139°55'0 0.0
2018-Jun-03 06:48N 35°35' E 139°55'4 6.8
2018-Jun-03 06:14N 35°32' E 139°53'312.0
2018-Jun-03 06:00N 35°31' E 139°50'4 8.4
2018-Jun-03 05:30N 35°30' E 139°45'0 0.0
2018-Jun-03 05:00N 35°30' E 139°45'0 0.0
2018-Jun-03 04:30N 35°30' E 139°45'0 0.0
2018-Jun-03 04:00N 35°30' E 139°45'0 0.0
2018-Jun-03 03:30N 35°30' E 139°45'0 0.0
2018-Jun-03 03:00N 35°30' E 139°45'0 0.0
2018-Jun-03 02:31N 35°30' E 139°45'2 4.4
2018-Jun-03 01:58N 35°30' E 139°48'510.5
2018-Jun-03 01:30N 35°30' E 139°53'611.8
2018-Jun-03 01:00N 35°29' E 140°01'1 1.0
2018-Jun-03 00:29N 35°29' E 140°01'1 0.2
2018-Jun-02 21:45N 35°29' E 140°00'1 5.8
2018-Jun-02 21:30N 35°30' E 139°59'3 6.9
2018-Jun-02 21:00N 35°29' E 139°55'0 0.0
2018-Jun-02 20:30N 35°29' E 139°55'0 0.0
2018-Jun-02 20:00N 35°29' E 139°55'0 0.0
2018-Jun-02 19:30N 35°29' E 139°55'0 0.0
2018-Jun-02 19:00N 35°29' E 139°55'0 0.0
2018-Jun-02 18:30N 35°29' E 139°55'0 0.0
2018-Jun-02 18:00N 35°29' E 139°55'0 0.0
2018-Jun-02 17:30N 35°29' E 139°55'0 0.0
2018-Jun-02 16:57N 35°29' E 139°55'0 0.0
2018-Jun-02 16:30N 35°29' E 139°55'0 0.0
2018-Jun-02 16:00N 35°29' E 139°55'0 0.0
2018-Jun-02 15:29N 35°29' E 139°55'0 0.0
2018-Jun-02 13:43N 35°29' E 139°55'0 0.0
2018-Jun-02 13:30N 35°29' E 139°55'0 0.0
2018-Jun-02 13:00N 35°29' E 139°55'0 0.0
2018-Jun-02 12:30N 35°29' E 139°55'0 0.1
2018-Jun-02 12:00N 35°29' E 139°55'0 0.0
2018-Jun-02 11:30N 35°29' E 139°55'0 0.0
2018-Jun-02 11:00N 35°29' E 139°55'  
Track history (hours):
 
Tides and Currents Weather Stations Pressure Air Temp Water Temp Dewpoint Dewpoint Depression Visibility Wind Speed Wind Dir Waves Ship Positions

Seiwamaru

Last reported at 2018-Jun-12 10:51 UTC. Time now 2018-Jun-19 21:27 UTC.
Position N 35°07' E 139°45'.

Length 71 m; draft 4.6 m.

Type: Ship (hazmat cat B). MMSI: 431500282.

Date/timePositionNaut miles runAvg speedWind from/ knotsBaromVisibWave heightAir tempDewpointWater temp
2018-Jun-12 10:51N 35°07' E 139°45'412.2
2018-Jun-12 10:30N 35°11' E 139°46'612.0
2018-Jun-12 10:00N 35°17' E 139°45'612.3
2018-Jun-12 09:30N 35°23' E 139°42'612.5
2018-Jun-12 09:00N 35°28' E 139°48'612.0
2018-Jun-12 08:30N 35°32' E 139°53'3 0.2
2018-Jun-11 18:52N 35°34' E 139°55'5 0.3
2018-Jun-11 03:45N 35°31' E 139°51'311.2
2018-Jun-11 03:30N 35°29' E 139°49'611.1
2018-Jun-11 03:00N 35°26' E 139°43'3 5.6
2018-Jun-11 02:30N 35°28' E 139°40'0 0.0
2018-Jun-11 02:00N 35°28' E 139°40'0 0.0
2018-Jun-11 01:30N 35°28' E 139°40'0 0.0
2018-Jun-11 01:00N 35°28' E 139°40'0 0.0
2018-Jun-11 00:29N 35°28' E 139°40'0 0.0
2018-Jun-11 00:00N 35°28' E 139°40'0 0.0
2018-Jun-10 23:30N 35°28' E 139°40'0 0.3
2018-Jun-10 23:00N 35°28' E 139°40'2 4.4
2018-Jun-10 22:30N 35°26' E 139°42'2 3.7
2018-Jun-10 22:00N 35°28' E 139°44'0 0.1
2018-Jun-10 21:30N 35°28' E 139°44'0 0.0
2018-Jun-10 21:00N 35°28' E 139°44'0 0.0
2018-Jun-10 20:30N 35°28' E 139°44'0 0.0
2018-Jun-10 20:00N 35°28' E 139°44'0 0.0
2018-Jun-10 19:30N 35°28' E 139°44'0 0.0
2018-Jun-10 19:00N 35°28' E 139°44'0 0.0
2018-Jun-10 18:30N 35°28' E 139°44'0 0.0
2018-Jun-10 18:00N 35°28' E 139°44'0 0.0
2018-Jun-10 17:30N 35°28' E 139°44'0 0.0
2018-Jun-10 16:58N 35°28' E 139°44'0 0.0
2018-Jun-10 16:30N 35°28' E 139°44'0 0.0
2018-Jun-10 16:00N 35°28' E 139°44'0 0.0
2018-Jun-10 15:30N 35°28' E 139°44'0 0.0
2018-Jun-10 15:00N 35°28' E 139°44'0 0.0
2018-Jun-10 14:30N 35°28' E 139°44'4 4.2
2018-Jun-10 13:30N 35°28' E 139°49'6 1.0
2018-Jun-10 06:58N 35°32' E 139°55'511.4
2018-Jun-10 06:30N 35°30' E 139°49'3 6.7
2018-Jun-10 06:00N 35°30' E 139°45'0 0.0
2018-Jun-10 05:30N 35°30' E 139°45'0 0.0
2018-Jun-10 05:00N 35°30' E 139°45'0 0.0
2018-Jun-10 04:30N 35°30' E 139°45'0 0.0
2018-Jun-10 03:59N 35°30' E 139°45'0 0.0
2018-Jun-10 03:30N 35°30' E 139°45'0 0.0
2018-Jun-10 03:00N 35°30' E 139°45'0 0.0
2018-Jun-10 02:30N 35°30' E 139°45'0 0.0
2018-Jun-10 02:00N 35°30' E 139°45'0 0.0
2018-Jun-10 01:30N 35°30' E 139°45'0 0.0
2018-Jun-10 01:00N 35°30' E 139°45'0 0.0
2018-Jun-10 00:30N 35°30' E 139°45'1 2.4
2018-Jun-10 00:00N 35°30' E 139°43'2 4.8
2018-Jun-09 23:30N 35°27' E 139°43'5 9.3
2018-Jun-09 22:58N 35°29' E 139°49'0 0.1
2018-Jun-09 22:30N 35°29' E 139°49'0 0.1
2018-Jun-09 22:00N 35°29' E 139°49'0 0.1
2018-Jun-09 21:30N 35°29' E 139°49'0 0.0
2018-Jun-09 21:00N 35°29' E 139°49'0 0.0
2018-Jun-09 20:25N 35°29' E 139°49'0 0.0
2018-Jun-09 20:00N 35°29' E 139°49'0 0.0
2018-Jun-09 19:30N 35°29' E 139°49'0 0.0
2018-Jun-09 19:00N 35°29' E 139°49'0 0.0
2018-Jun-09 18:30N 35°29' E 139°49'0 0.4
2018-Jun-09 18:00N 35°29' E 139°49'5 9.1
2018-Jun-09 17:30N 35°25' E 139°46'611.2
2018-Jun-09 17:00N 35°19' E 139°44'611.7
2018-Jun-09 16:29N 35°14' E 139°47'  
2018-Jun-04 07:19N 35°08' E 139°42'412.1
2018-Jun-04 06:57N 35°11' E 139°46'511.1
2018-Jun-04 06:28N 35°17' E 139°45'511.5
2018-Jun-04 06:00N 35°21' E 139°42'611.0
2018-Jun-04 05:30N 35°26' E 139°46'612.3
2018-Jun-04 05:00N 35°30' E 139°52'9 1.4
2018-Jun-03 22:49N 35°35' E 140°00'310.1
2018-Jun-03 22:30N 35°35' E 139°56'1 0.2
2018-Jun-03 16:31N 35°35' E 139°55'0 0.0
2018-Jun-03 16:30N 35°35' E 139°55'0 0.0
2018-Jun-03 06:48N 35°35' E 139°55'4 6.8
2018-Jun-03 06:14N 35°32' E 139°53'312.0
2018-Jun-03 06:00N 35°31' E 139°50'4 8.4
2018-Jun-03 05:30N 35°30' E 139°45'0 0.0
2018-Jun-03 05:00N 35°30' E 139°45'0 0.0
2018-Jun-03 04:30N 35°30' E 139°45'0 0.0
2018-Jun-03 04:00N 35°30' E 139°45'0 0.0
2018-Jun-03 03:30N 35°30' E 139°45'0 0.0
2018-Jun-03 03:00N 35°30' E 139°45'0 0.0
2018-Jun-03 02:31N 35°30' E 139°45'2 4.4
2018-Jun-03 01:58N 35°30' E 139°48'510.5
2018-Jun-03 01:30N 35°30' E 139°53'611.8
2018-Jun-03 01:00N 35°29' E 140°01'1 1.0
2018-Jun-03 00:29N 35°29' E 140°01'1 0.2
2018-Jun-02 21:45N 35°29' E 140°00'1 5.8
2018-Jun-02 21:30N 35°30' E 139°59'3 6.9
2018-Jun-02 21:00N 35°29' E 139°55'0 0.0
2018-Jun-02 20:30N 35°29' E 139°55'0 0.0
2018-Jun-02 20:00N 35°29' E 139°55'0 0.0
2018-Jun-02 19:30N 35°29' E 139°55'0 0.0
2018-Jun-02 19:00N 35°29' E 139°55'0 0.0
2018-Jun-02 18:30N 35°29' E 139°55'0 0.0
2018-Jun-02 18:00N 35°29' E 139°55'0 0.0
2018-Jun-02 17:30N 35°29' E 139°55'0 0.0
2018-Jun-02 16:57N 35°29' E 139°55'0 0.0
2018-Jun-02 16:30N 35°29' E 139°55'0 0.0
2018-Jun-02 16:00N 35°29' E 139°55'0 0.0
2018-Jun-02 15:29N 35°29' E 139°55'0 0.0
2018-Jun-02 13:43N 35°29' E 139°55'0 0.0
2018-Jun-02 13:30N 35°29' E 139°55'0 0.0
2018-Jun-02 13:00N 35°29' E 139°55'0 0.0
2018-Jun-02 12:30N 35°29' E 139°55'0 0.1
2018-Jun-02 12:00N 35°29' E 139°55'0 0.0
2018-Jun-02 11:30N 35°29' E 139°55'0 0.0
2018-Jun-02 11:00N 35°29' E 139°55'  

Dump ship's entire track history